You are listening to:
EPPO Twr/App/FIS - Poznan, Poland

EPPO 082030Z 08004KT CAVOK 23/18 Q1020

If stream doesn't start automatically press the play button
If stream stops then reload player then press play